createdAt,value
2019-05-26T00:00:34.982Z,24.00
2019-05-26T00:03:05.838Z,24.00
2019-05-26T00:05:36.755Z,24.00
2019-05-26T00:08:07.586Z,24.00
2019-05-26T00:10:38.349Z,24.00
2019-05-26T00:13:09.087Z,24.00
2019-05-26T00:15:39.722Z,24.00
2019-05-26T00:18:10.360Z,24.00
2019-05-26T00:20:41.168Z,24.00
2019-05-26T00:23:12.111Z,24.00
2019-05-26T00:25:42.945Z,24.00
2019-05-26T00:28:13.955Z,24.00
2019-05-26T00:30:44.850Z,24.00
2019-05-26T00:33:15.790Z,24.00
2019-05-26T00:35:46.692Z,24.00
2019-05-26T00:38:17.643Z,24.00
2019-05-26T00:40:48.804Z,24.00
2019-05-26T00:43:19.664Z,24.00
2019-05-26T00:45:50.464Z,24.00
2019-05-26T00:48:21.649Z,24.00
2019-05-26T00:50:52.628Z,24.00
2019-05-26T00:53:23.536Z,24.00
2019-05-26T00:55:54.363Z,24.00
2019-05-26T00:58:25.192Z,24.00
2019-05-26T01:00:55.834Z,24.00
2019-05-26T01:03:26.784Z,24.00
2019-05-26T01:05:57.496Z,24.00
2019-05-26T01:08:28.233Z,24.00
2019-05-26T01:11:01.502Z,24.00
2019-05-26T01:13:31.940Z,24.00
2019-05-26T01:16:03.190Z,24.00
2019-05-26T01:18:34.396Z,24.00
2019-05-26T01:21:05.248Z,24.00
2019-05-26T01:23:36.319Z,24.00
2019-05-26T01:26:06.973Z,24.00
2019-05-26T01:28:37.710Z,24.00
2019-05-26T01:31:08.741Z,24.00
2019-05-26T01:33:39.465Z,24.00
2019-05-26T01:36:10.412Z,24.00
2019-05-26T01:38:41.252Z,24.00
2019-05-26T01:41:12.123Z,24.00
2019-05-26T01:43:42.984Z,23.90
2019-05-26T01:46:13.943Z,24.00
2019-05-26T01:48:45.176Z,23.90
2019-05-26T01:51:15.868Z,23.90
2019-05-26T01:53:46.668Z,23.90
2019-05-26T01:56:17.614Z,23.90
2019-05-26T01:58:48.499Z,23.90
2019-05-26T02:01:19.422Z,23.90
2019-05-26T02:03:50.424Z,23.90
2019-05-26T02:06:21.524Z,24.00
2019-05-26T02:08:52.289Z,24.00
2019-05-26T02:11:23.230Z,24.00
2019-05-26T02:13:53.918Z,24.00
2019-05-26T02:16:24.635Z,24.00
2019-05-26T02:18:55.369Z,24.00
2019-05-26T02:21:26.055Z,24.00
2019-05-26T02:23:57.035Z,24.00
2019-05-26T02:26:27.977Z,24.00
2019-05-26T02:28:59.069Z,24.00
2019-05-26T02:31:29.986Z,24.00
2019-05-26T02:34:01.127Z,24.00
2019-05-26T02:36:32.343Z,23.90
2019-05-26T02:39:03.719Z,23.90
2019-05-26T02:41:34.730Z,23.90
2019-05-26T02:44:05.581Z,23.90
2019-05-26T02:46:36.373Z,23.90
2019-05-26T02:49:07.104Z,23.90
2019-05-26T02:51:37.896Z,23.90
2019-05-26T02:54:08.703Z,23.90
2019-05-26T02:56:39.770Z,23.90
2019-05-26T02:59:11.093Z,23.90
2019-05-26T03:02:01.311Z,23.90
2019-05-26T03:04:14.489Z,23.90
2019-05-26T03:06:45.335Z,23.90
2019-05-26T03:09:22.585Z,23.90
2019-05-26T03:11:49.388Z,23.90
2019-05-26T03:14:20.748Z,23.90
2019-05-26T03:16:51.639Z,23.90
2019-05-26T03:19:22.680Z,23.90
2019-05-26T03:21:53.653Z,23.90
2019-05-26T03:24:24.687Z,23.90
2019-05-26T03:26:55.707Z,23.90
2019-05-26T03:29:26.560Z,23.90
2019-05-26T03:31:57.299Z,23.90
2019-05-26T03:34:28.204Z,23.90
2019-05-26T03:36:58.968Z,23.90
2019-05-26T03:39:43.289Z,23.90
2019-05-26T03:42:02.267Z,23.90
2019-05-26T03:44:32.886Z,23.80
2019-05-26T03:47:03.413Z,23.90
2019-05-26T03:49:34.245Z,23.90
2019-05-26T03:52:04.751Z,23.90
2019-05-26T03:54:35.220Z,23.90
2019-05-26T03:57:06.094Z,23.90
2019-05-26T03:59:37.091Z,23.90
2019-05-26T04:02:08.036Z,23.90
2019-05-26T04:04:39.102Z,23.90
2019-05-26T04:07:09.987Z,23.90
2019-05-26T04:09:40.696Z,23.90
2019-05-26T04:12:11.639Z,23.90
2019-05-26T04:14:42.649Z,23.90
2019-05-26T04:17:13.470Z,23.90
2019-05-26T04:19:44.100Z,23.90
2019-05-26T04:22:14.859Z,23.90
2019-05-26T04:24:45.278Z,23.90
2019-05-26T04:27:15.759Z,23.90
2019-05-26T04:29:46.215Z,23.90
2019-05-26T04:32:16.729Z,23.90
2019-05-26T04:34:47.253Z,23.80
2019-05-26T04:37:17.917Z,23.90
2019-05-26T04:39:48.677Z,23.80
2019-05-26T04:42:19.790Z,23.80
2019-05-26T04:44:50.761Z,23.90
2019-05-26T04:47:21.762Z,23.90
2019-05-26T04:49:53.947Z,23.90
2019-05-26T04:52:24.931Z,23.90
2019-05-26T04:54:55.467Z,23.90
2019-05-26T04:57:25.974Z,23.90
2019-05-26T04:59:56.877Z,23.90
2019-05-26T05:02:27.636Z,24.00
2019-05-26T05:04:58.493Z,24.00
2019-05-26T05:07:29.538Z,23.90
2019-05-26T05:10:00.358Z,24.00
2019-05-26T05:12:31.187Z,23.90
2019-05-26T05:15:02.025Z,23.90
2019-05-26T05:17:32.878Z,23.90
2019-05-26T05:20:03.739Z,23.90
2019-05-26T05:22:34.548Z,23.90
2019-05-26T05:25:13.817Z,23.90
2019-05-26T05:27:38.811Z,23.90
2019-05-26T05:30:09.907Z,23.90
2019-05-26T05:32:40.684Z,23.90
2019-05-26T05:35:11.781Z,23.90
2019-05-26T05:37:42.730Z,23.90
2019-05-26T05:40:13.584Z,23.90
2019-05-26T05:42:44.601Z,23.90
2019-05-26T05:45:15.853Z,23.80
2019-05-26T05:47:46.791Z,23.90
2019-05-26T05:50:17.647Z,23.90
2019-05-26T05:52:48.361Z,23.90
2019-05-26T05:55:19.282Z,23.90
2019-05-26T05:57:50.377Z,23.90
2019-05-26T06:00:22.220Z,23.90
2019-05-26T06:02:53.114Z,24.00
2019-05-26T06:05:24.016Z,24.00
2019-05-26T06:07:54.620Z,24.00
2019-05-26T06:10:25.446Z,24.00
2019-05-26T06:12:56.096Z,24.00
2019-05-26T06:15:27.134Z,23.90
2019-05-26T06:17:58.118Z,23.90
2019-05-26T06:20:28.932Z,23.90
2019-05-26T06:22:59.725Z,23.90
2019-05-26T06:25:30.753Z,23.90
2019-05-26T06:28:02.369Z,23.90
2019-05-26T06:30:34.754Z,23.90
2019-05-26T06:33:05.765Z,23.80
2019-05-26T06:35:36.691Z,23.80
2019-05-26T06:38:07.566Z,23.80
2019-05-26T06:40:38.406Z,23.90
2019-05-26T06:43:09.374Z,23.90
2019-05-26T06:45:40.477Z,23.90
2019-05-26T06:48:11.916Z,23.90
2019-05-26T06:50:43.958Z,23.90
2019-05-26T06:53:14.801Z,23.80
2019-05-26T06:55:45.649Z,23.90
2019-05-26T06:58:16.528Z,23.80
2019-05-26T07:00:48.021Z,23.80
2019-05-26T07:03:19.076Z,23.80
2019-05-26T07:05:49.934Z,23.80
2019-05-26T07:08:20.781Z,23.80
2019-05-26T07:10:51.498Z,23.80
2019-05-26T07:13:22.536Z,23.80
2019-05-26T07:15:53.387Z,23.80
2019-05-26T07:18:24.207Z,23.70
2019-05-26T07:20:54.973Z,23.70
2019-05-26T07:23:25.708Z,23.70
2019-05-26T07:25:56.661Z,23.70
2019-05-26T07:28:27.450Z,23.70
2019-05-26T07:30:58.424Z,23.70
2019-05-26T07:33:29.135Z,23.70
2019-05-26T07:36:00.030Z,23.70
2019-05-26T07:38:30.889Z,23.70
2019-05-26T07:41:01.678Z,23.60
2019-05-26T07:43:32.541Z,23.70
2019-05-26T07:46:03.426Z,23.70
2019-05-26T07:48:36.073Z,23.70
2019-05-26T07:51:06.977Z,23.70
2019-05-26T07:53:38.115Z,23.70
2019-05-26T07:56:08.818Z,23.70
2019-05-26T07:58:39.620Z,23.70
2019-05-26T08:01:10.409Z,23.70
2019-05-26T08:03:41.415Z,23.70
2019-05-26T08:06:12.477Z,23.70
2019-05-26T08:08:43.131Z,23.70
2019-05-26T08:11:13.772Z,23.70
2019-05-26T08:13:44.673Z,23.70
2019-05-26T08:16:16.019Z,23.70
2019-05-26T08:18:47.078Z,23.70
2019-05-26T08:21:18.000Z,23.70
2019-05-26T08:23:49.209Z,23.70
2019-05-26T08:26:20.274Z,23.70
2019-05-26T08:28:50.983Z,23.70
2019-05-26T08:31:21.870Z,23.70
2019-05-26T08:33:52.817Z,23.60
2019-05-26T08:36:24.336Z,23.70
2019-05-26T08:38:54.882Z,23.70
2019-05-26T08:41:25.925Z,23.70
2019-05-26T08:43:56.939Z,23.70
2019-05-26T08:46:27.817Z,23.70
2019-05-26T08:48:58.544Z,23.70
2019-05-26T08:51:29.670Z,23.70
2019-05-26T08:54:00.628Z,23.70
2019-05-26T08:56:31.350Z,23.70
2019-05-26T08:59:02.390Z,23.70
2019-05-26T09:01:33.322Z,23.70
2019-05-26T09:04:04.280Z,23.70
2019-05-26T09:06:35.098Z,23.70
2019-05-26T09:09:07.354Z,23.70
2019-05-26T09:11:38.155Z,23.70
2019-05-26T09:14:09.115Z,23.70
2019-05-26T09:16:39.984Z,23.70
2019-05-26T09:19:10.880Z,23.70
2019-05-26T09:21:41.789Z,23.70
2019-05-26T09:24:12.854Z,23.70
2019-05-26T09:26:43.908Z,23.70
2019-05-26T09:29:14.708Z,23.70
2019-05-26T09:31:45.837Z,23.70
2019-05-26T09:34:17.198Z,23.70
2019-05-26T09:36:49.240Z,23.70
2019-05-26T09:39:20.554Z,23.70
2019-05-26T09:41:52.033Z,23.70
2019-05-26T09:44:23.004Z,23.70
2019-05-26T09:46:53.954Z,23.70
2019-05-26T09:49:24.787Z,23.70
2019-05-26T09:51:55.752Z,23.70
2019-05-26T09:54:26.639Z,23.70
2019-05-26T09:56:57.572Z,23.70
2019-05-26T09:59:28.642Z,23.70
2019-05-26T10:01:59.517Z,23.70
2019-05-26T10:04:30.714Z,23.70
2019-05-26T10:07:02.116Z,23.70
2019-05-26T10:09:32.787Z,23.70
2019-05-26T10:12:03.908Z,23.70
2019-05-26T10:14:35.014Z,23.70
2019-05-26T10:17:06.134Z,23.70
2019-05-26T10:19:36.910Z,23.70
2019-05-26T10:22:08.034Z,23.70
2019-05-26T10:24:38.796Z,23.80
2019-05-26T10:27:09.588Z,23.80
2019-05-26T10:29:40.764Z,23.80
2019-05-26T10:32:12.712Z,23.80
2019-05-26T10:34:43.667Z,23.80
2019-05-26T10:37:14.211Z,23.80
2019-05-26T10:39:45.321Z,23.80
2019-05-26T10:42:15.980Z,23.80
2019-05-26T10:44:46.760Z,23.80
2019-05-26T10:47:17.250Z,23.80
2019-05-26T10:49:48.103Z,23.80
2019-05-26T10:52:19.014Z,23.70
2019-05-26T10:54:49.720Z,23.80
2019-05-26T10:57:20.475Z,23.80
2019-05-26T10:59:51.289Z,23.70
2019-05-26T11:02:22.311Z,23.70
2019-05-26T11:04:53.176Z,23.70
2019-05-26T11:07:26.848Z,23.70
2019-05-26T11:09:56.813Z,23.70
2019-05-26T11:12:27.535Z,23.70
2019-05-26T11:14:58.561Z,23.70
2019-05-26T11:17:29.730Z,23.70
2019-05-26T11:20:00.667Z,23.70
2019-05-26T11:22:32.038Z,23.80
2019-05-26T11:25:03.301Z,23.80
2019-05-26T11:27:35.015Z,23.80
2019-05-26T11:30:06.293Z,23.80
2019-05-26T11:32:37.168Z,23.80
2019-05-26T11:35:08.916Z,23.70
2019-05-26T11:37:39.791Z,23.80
2019-05-26T11:40:10.861Z,23.80
2019-05-26T11:42:44.771Z,23.70
2019-05-26T11:45:16.047Z,23.70
2019-05-26T11:47:46.912Z,23.80
2019-05-26T11:50:17.799Z,23.80
2019-05-26T11:52:48.743Z,23.80
2019-05-26T11:55:19.774Z,23.80
2019-05-26T11:57:50.993Z,23.80
2019-05-26T12:00:22.411Z,23.80
2019-05-26T12:02:53.811Z,23.70
2019-05-26T12:05:24.924Z,23.70
2019-05-26T12:07:55.736Z,23.70
2019-05-26T12:10:26.393Z,23.70
2019-05-26T12:12:57.256Z,23.70
2019-05-26T12:15:29.680Z,23.80
2019-05-26T12:18:00.546Z,23.80
2019-05-26T12:20:31.731Z,23.80
2019-05-26T12:23:03.425Z,23.80
2019-05-26T12:25:34.514Z,23.70
2019-05-26T12:28:05.473Z,23.70
2019-05-26T12:30:37.245Z,23.70
2019-05-26T12:33:09.261Z,23.70
2019-05-26T12:35:50.550Z,23.70
2019-05-26T12:38:23.204Z,23.70
2019-05-26T12:40:58.044Z,23.70
2019-05-26T12:43:37.579Z,23.70
2019-05-26T12:46:12.032Z,23.70
2019-05-26T12:48:47.592Z,23.80
2019-05-26T12:51:25.142Z,23.90
2019-05-26T12:53:58.636Z,23.90
2019-05-26T12:56:33.392Z,24.00
2019-05-26T12:59:07.723Z,24.00
2019-05-26T13:01:39.672Z,24.10
2019-05-26T13:04:12.999Z,24.20
2019-05-26T13:06:48.386Z,24.30
2019-05-26T13:09:20.039Z,24.40
2019-05-26T13:11:52.454Z,24.50
2019-05-26T13:14:24.461Z,24.50
2019-05-26T13:16:56.596Z,24.50
2019-05-26T13:19:28.406Z,24.50
2019-05-26T13:22:00.344Z,24.50
2019-05-26T13:24:31.270Z,24.50
2019-05-26T13:27:02.056Z,24.50
2019-05-26T13:29:32.854Z,24.40
2019-05-26T13:32:04.343Z,24.40
2019-05-26T13:34:35.997Z,24.30
2019-05-26T13:37:08.483Z,24.30
2019-05-26T13:39:39.791Z,24.30
2019-05-26T13:42:10.896Z,24.20
2019-05-26T13:44:43.217Z,24.20
2019-05-26T13:47:25.848Z,24.10
2019-05-26T13:49:47.809Z,24.10
2019-05-26T13:52:21.483Z,24.10
2019-05-26T13:54:55.789Z,24.10
2019-05-26T13:57:28.866Z,24.10
2019-05-26T14:00:03.015Z,24.10
2019-05-26T14:02:34.424Z,24.10
2019-05-26T14:05:05.600Z,24.10
2019-05-26T14:07:36.695Z,24.20
2019-05-26T14:10:07.730Z,24.20
2019-05-26T14:12:39.129Z,24.10
2019-05-26T14:15:10.859Z,24.10
2019-05-26T14:17:41.594Z,24.10
2019-05-26T14:20:14.060Z,24.10
2019-05-26T14:22:45.026Z,24.00
2019-05-26T14:25:16.117Z,24.00
2019-05-26T14:27:46.899Z,24.00
2019-05-26T14:30:17.760Z,24.00
2019-05-26T14:32:48.794Z,24.00
2019-05-26T14:35:19.813Z,24.00
2019-05-26T14:37:50.870Z,24.00
2019-05-26T14:40:21.901Z,24.00
2019-05-26T14:42:53.103Z,24.00
2019-05-26T14:45:24.129Z,24.00
2019-05-26T14:47:55.354Z,23.90
2019-05-26T14:50:26.351Z,23.90
2019-05-26T14:52:57.156Z,23.90
2019-05-26T14:55:28.105Z,23.90
2019-05-26T14:58:14.383Z,23.90
2019-05-26T15:00:31.526Z,24.00
2019-05-26T15:03:02.261Z,24.00
2019-05-26T15:05:33.185Z,24.00
2019-05-26T15:08:04.220Z,24.00
2019-05-26T15:10:35.212Z,24.00
2019-05-26T15:13:06.232Z,24.00
2019-05-26T15:15:37.087Z,24.00
2019-05-26T15:18:07.926Z,24.00
2019-05-26T15:20:38.964Z,23.90
2019-05-26T15:23:09.872Z,24.00
2019-05-26T15:25:40.655Z,23.90
2019-05-26T15:28:11.457Z,23.90
2019-05-26T15:30:42.303Z,23.90
2019-05-26T15:33:13.226Z,23.90
2019-05-26T15:35:45.085Z,23.90
2019-05-26T15:38:16.246Z,23.90
2019-05-26T15:40:47.290Z,23.90
2019-05-26T15:43:18.008Z,23.90
2019-05-26T15:45:48.654Z,23.90
2019-05-26T15:48:19.819Z,23.90
2019-05-26T15:50:50.646Z,23.90
2019-05-26T15:53:21.467Z,24.00
2019-05-26T15:55:52.640Z,24.00
2019-05-26T15:58:23.652Z,24.00
2019-05-26T16:00:54.534Z,24.00
2019-05-26T16:03:25.737Z,23.90
2019-05-26T16:06:00.083Z,24.00
2019-05-26T16:08:31.551Z,24.00
2019-05-26T16:11:02.675Z,23.90
2019-05-26T16:13:34.208Z,23.90
2019-05-26T16:16:05.353Z,24.00
2019-05-26T16:18:36.791Z,24.00
2019-05-26T16:21:24.736Z,24.00
2019-05-26T16:23:41.619Z,24.00
2019-05-26T16:26:12.900Z,24.00
2019-05-26T16:28:44.392Z,24.00
2019-05-26T16:31:15.948Z,24.00
2019-05-26T16:33:47.128Z,24.00
2019-05-26T16:36:22.509Z,24.10
2019-05-26T16:38:56.422Z,24.10
2019-05-26T16:41:30.757Z,24.20
2019-05-26T16:44:06.983Z,24.30
2019-05-26T16:46:39.034Z,24.40
2019-05-26T16:49:16.318Z,24.50
2019-05-26T16:51:50.029Z,24.60
2019-05-26T16:54:24.120Z,24.50
2019-05-26T16:56:56.009Z,24.50
2019-05-26T16:59:29.249Z,24.50
2019-05-26T17:02:01.402Z,24.50
2019-05-26T17:04:33.987Z,24.60
2019-05-26T17:07:07.060Z,24.50
2019-05-26T17:09:38.738Z,24.50
2019-05-26T17:12:10.800Z,24.50
2019-05-26T17:14:42.992Z,24.50
2019-05-26T17:17:15.512Z,24.60
2019-05-26T17:19:48.087Z,24.60
2019-05-26T17:22:20.442Z,24.80
2019-05-26T17:24:52.925Z,24.70
2019-05-26T17:27:25.471Z,24.70
2019-05-26T17:29:57.341Z,24.70
2019-05-26T17:32:28.054Z,24.70
2019-05-26T17:34:58.934Z,24.80
2019-05-26T17:37:29.601Z,24.90
2019-05-26T17:40:00.425Z,25.20
2019-05-26T17:42:31.606Z,25.50
2019-05-26T17:45:02.804Z,25.40
2019-05-26T17:47:33.795Z,25.30
2019-05-26T17:50:05.210Z,25.20
2019-05-26T17:52:36.044Z,25.50
2019-05-26T17:55:07.324Z,25.30
2019-05-26T17:57:38.466Z,25.10
2019-05-26T18:00:10.448Z,25.00
2019-05-26T18:02:41.273Z,24.90
2019-05-26T18:05:12.915Z,24.80
2019-05-26T18:07:43.860Z,24.70
2019-05-26T18:10:15.924Z,24.70
2019-05-26T18:12:46.909Z,24.60
2019-05-26T18:15:18.053Z,24.60
2019-05-26T18:17:48.880Z,24.50
2019-05-26T18:20:20.843Z,24.40
2019-05-26T18:22:52.120Z,24.40
2019-05-26T18:25:22.802Z,24.40
2019-05-26T18:27:53.627Z,24.40
2019-05-26T18:30:24.810Z,24.40
2019-05-26T18:32:56.115Z,24.40
2019-05-26T18:35:26.829Z,24.40
2019-05-26T18:37:57.572Z,24.40
2019-05-26T18:40:28.547Z,24.40
2019-05-26T18:42:59.755Z,24.40
2019-05-26T18:45:30.817Z,24.40
2019-05-26T18:48:03.671Z,24.40
2019-05-26T18:50:42.604Z,24.40
2019-05-26T18:53:15.855Z,24.40
2019-05-26T18:55:48.475Z,24.40
2019-05-26T18:58:23.890Z,24.30
2019-05-26T19:00:59.478Z,24.40
2019-05-26T19:03:35.721Z,24.40
2019-05-26T19:06:08.622Z,24.40
2019-05-26T19:08:39.914Z,24.40
2019-05-26T19:11:11.602Z,24.40
2019-05-26T19:13:42.952Z,24.40
2019-05-26T19:16:14.139Z,24.40
2019-05-26T19:18:45.006Z,24.40
2019-05-26T19:21:15.857Z,24.40
2019-05-26T19:23:47.050Z,24.40
2019-05-26T19:26:17.907Z,24.40
2019-05-26T19:28:48.897Z,24.40
2019-05-26T19:31:19.799Z,24.40
2019-05-26T19:33:50.862Z,24.40
2019-05-26T19:36:21.880Z,24.40
2019-05-26T19:38:52.675Z,24.40
2019-05-26T19:41:23.621Z,24.40
2019-05-26T19:43:54.603Z,24.40
2019-05-26T19:46:25.532Z,24.40
2019-05-26T19:48:56.513Z,24.30
2019-05-26T19:51:27.490Z,24.30
2019-05-26T19:53:58.524Z,24.30
2019-05-26T19:56:29.470Z,24.30
2019-05-26T19:59:00.585Z,24.30
2019-05-26T20:01:31.411Z,24.30
2019-05-26T20:04:02.468Z,24.20
2019-05-26T20:06:33.211Z,24.30
2019-05-26T20:09:04.666Z,24.30
2019-05-26T20:11:35.651Z,24.40
2019-05-26T20:14:06.970Z,24.40
2019-05-26T20:16:38.079Z,24.40
2019-05-26T20:19:09.026Z,24.40
2019-05-26T20:21:40.202Z,24.40
2019-05-26T20:24:11.099Z,24.40
2019-05-26T20:26:41.891Z,24.40
2019-05-26T20:29:13.186Z,24.40
2019-05-26T20:31:44.157Z,24.30
2019-05-26T20:34:15.073Z,24.30
2019-05-26T20:36:46.142Z,24.30
2019-05-26T20:39:17.011Z,24.30
2019-05-26T20:41:48.371Z,24.30
2019-05-26T20:44:19.239Z,24.30
2019-05-26T20:46:50.726Z,24.20
2019-05-26T20:49:22.173Z,24.20
2019-05-26T20:51:53.277Z,24.20
2019-05-26T20:54:24.428Z,24.20
2019-05-26T20:56:55.121Z,24.20
2019-05-26T20:59:26.083Z,24.20
2019-05-26T21:01:57.052Z,24.20
2019-05-26T21:04:33.239Z,24.10
2019-05-26T21:07:04.310Z,24.20
2019-05-26T21:09:35.323Z,24.20
2019-05-26T21:12:06.430Z,24.20
2019-05-26T21:14:37.392Z,24.20
2019-05-26T21:17:08.400Z,24.20
2019-05-26T21:19:39.337Z,24.20
2019-05-26T21:22:10.437Z,24.20
2019-05-26T21:24:41.487Z,24.20
2019-05-26T21:27:12.326Z,24.20
2019-05-26T21:29:43.576Z,24.20
2019-05-26T21:32:14.590Z,24.20
2019-05-26T21:34:46.335Z,24.20
2019-05-26T21:37:17.142Z,24.20
2019-05-26T21:39:48.980Z,24.10
2019-05-26T21:42:20.006Z,24.20
2019-05-26T21:44:50.897Z,24.10
2019-05-26T21:47:23.438Z,24.20
2019-05-26T21:49:54.458Z,24.20
2019-05-26T21:52:25.476Z,24.20
2019-05-26T21:54:56.213Z,24.20
2019-05-26T21:57:26.854Z,24.10
2019-05-26T21:59:57.814Z,24.10
2019-05-26T22:02:29.235Z,24.10
2019-05-26T22:04:59.909Z,24.10
2019-05-26T22:07:31.754Z,24.20
2019-05-26T22:10:03.258Z,24.20
2019-05-26T22:12:34.414Z,24.10
2019-05-26T22:15:05.693Z,24.10
2019-05-26T22:17:36.619Z,24.20
2019-05-26T22:20:09.688Z,24.20
2019-05-26T22:22:40.721Z,24.20
2019-05-26T22:25:12.616Z,24.10
2019-05-26T22:27:44.153Z,24.10
2019-05-26T22:30:16.734Z,24.10
2019-05-26T22:32:47.839Z,24.20
2019-05-26T22:35:18.766Z,24.20
2019-05-26T22:37:49.568Z,24.20
2019-05-26T22:40:20.209Z,24.20
2019-05-26T22:42:51.197Z,24.20
2019-05-26T22:45:21.935Z,24.20
2019-05-26T22:47:53.126Z,24.20
2019-05-26T22:50:26.599Z,24.20
2019-05-26T22:53:00.324Z,24.20
2019-05-26T22:55:33.645Z,24.20
2019-05-26T22:58:09.736Z,24.20
2019-05-26T23:00:44.669Z,24.30
2019-05-26T23:03:18.131Z,24.30
2019-05-26T23:05:51.583Z,24.30
2019-05-26T23:08:26.237Z,24.30
2019-05-26T23:10:59.524Z,24.20
2019-05-26T23:13:32.609Z,24.20
2019-05-26T23:16:05.873Z,24.20
2019-05-26T23:18:39.275Z,24.20
2019-05-26T23:21:12.781Z,24.10
2019-05-26T23:23:47.038Z,24.20
2019-05-26T23:26:20.261Z,24.20
2019-05-26T23:28:51.270Z,24.10
2019-05-26T23:31:22.077Z,24.10
2019-05-26T23:33:52.836Z,24.20
2019-05-26T23:36:23.685Z,24.20
2019-05-26T23:38:54.485Z,24.20
2019-05-26T23:41:25.498Z,24.20
2019-05-26T23:43:56.243Z,24.20
2019-05-26T23:46:27.021Z,24.20
2019-05-26T23:48:57.846Z,24.20
2019-05-26T23:51:28.589Z,24.20
2019-05-26T23:53:59.311Z,24.20
2019-05-26T23:56:30.067Z,24.30
2019-05-26T23:59:01.082Z,24.30
